sensor_id;sensor_type;location;lat;lon;timestamp;pressure;altitude;pressure_sealevel;temperature;humidity
36664;BME280;53333;51.976;20.144;2023-01-26T00:01:00;101037.09;;;2.11;69.51
36664;BME280;53333;51.976;20.144;2023-01-26T00:03:33;101032.69;;;2.14;69.43
36664;BME280;53333;51.976;20.144;2023-01-26T00:06:08;101038.84;;;2.16;69.10
36664;BME280;53333;51.976;20.144;2023-01-26T00:08:43;101039.75;;;2.15;69.29
36664;BME280;53333;51.976;20.144;2023-01-26T00:11:18;101030.06;;;2.14;69.43
36664;BME280;53333;51.976;20.144;2023-01-26T00:13:52;101030.06;;;2.16;69.35
36664;BME280;53333;51.976;20.144;2023-01-26T00:16:27;101024.78;;;2.13;69.41
36664;BME280;53333;51.976;20.144;2023-01-26T00:19:00;101028.28;;;2.12;69.31
36664;BME280;53333;51.976;20.144;2023-01-26T00:21:33;101020.38;;;2.12;69.36
36664;BME280;53333;51.976;20.144;2023-01-26T00:24:06;101015.13;;;2.12;69.22
36664;BME280;53333;51.976;20.144;2023-01-26T00:26:39;101010.75;;;2.12;69.48
36664;BME280;53333;51.976;20.144;2023-01-26T00:29:12;101004.56;;;2.13;69.35
36664;BME280;53333;51.976;20.144;2023-01-26T00:31:47;101005.47;;;2.15;69.43
36664;BME280;53333;51.976;20.144;2023-01-26T00:34:21;101012.47;;;2.16;69.37
36664;BME280;53333;51.976;20.144;2023-01-26T00:36:54;101015.13;;;2.20;69.41
36664;BME280;53333;51.976;20.144;2023-01-26T00:39:27;101014.25;;;2.19;69.25
36664;BME280;53333;51.976;20.144;2023-01-26T00:42:00;101013.34;;;2.20;69.40
36664;BME280;53333;51.976;20.144;2023-01-26T00:44:41;101013.34;;;2.20;69.25
36664;BME280;53333;51.976;20.144;2023-01-26T00:47:16;101012.47;;;2.33;69.20
36664;BME280;53333;51.976;20.144;2023-01-26T00:49:49;101018.63;;;2.23;69.08
36664;BME280;53333;51.976;20.144;2023-01-26T00:52:22;101010.72;;;2.22;69.11
36664;BME280;53333;51.976;20.144;2023-01-26T00:54:55;101015.13;;;2.24;69.05
36664;BME280;53333;51.976;20.144;2023-01-26T00:57:28;101008.97;;;2.24;69.05
36664;BME280;53333;51.976;20.144;2023-01-26T01:00:01;101008.97;;;2.24;69.17
36664;BME280;53333;51.976;20.144;2023-01-26T01:02:35;101008.06;;;2.23;69.18
36664;BME280;53333;51.976;20.144;2023-01-26T01:05:08;101001.06;;;2.24;69.25
36664;BME280;53333;51.976;20.144;2023-01-26T01:07:44;101001.94;;;2.23;69.24
36664;BME280;53333;51.976;20.144;2023-01-26T01:10:18;101007.19;;;2.23;69.43
36664;BME280;53333;51.976;20.144;2023-01-26T01:12:51;101001.06;;;2.24;69.42
36664;BME280;53333;51.976;20.144;2023-01-26T01:15:24;101006.34;;;2.22;69.42
36664;BME280;53333;51.976;20.144;2023-01-26T01:17:58;101000.16;;;2.18;69.43
36664;BME280;53333;51.976;20.144;2023-01-26T01:20:33;101012.47;;;2.18;69.48
36664;BME280;53333;51.976;20.144;2023-01-26T01:23:06;100995.78;;;2.16;69.62
36664;BME280;53333;51.976;20.144;2023-01-26T01:25:39;100991.38;;;2.16;69.44
36664;BME280;53333;51.976;20.144;2023-01-26T01:28:12;100988.75;;;2.18;69.46
36664;BME280;53333;51.976;20.144;2023-01-26T01:30:45;100982.59;;;2.17;69.63
36664;BME280;53333;51.976;20.144;2023-01-26T01:33:20;100980.84;;;2.18;69.49
36664;BME280;53333;51.976;20.144;2023-01-26T01:35:57;100974.69;;;2.19;69.61
36664;BME280;53333;51.976;20.144;2023-01-26T01:38:30;100972.94;;;2.18;69.49
36664;BME280;53333;51.976;20.144;2023-01-26T01:41:04;100969.44;;;2.17;69.54
36664;BME280;53333;51.976;20.144;2023-01-26T01:43:38;100966.78;;;2.17;69.57
36664;BME280;53333;51.976;20.144;2023-01-26T01:46:16;100957.97;;;2.17;69.52
36664;BME280;53333;51.976;20.144;2023-01-26T01:48:56;100954.47;;;2.16;69.64
36664;BME280;53333;51.976;20.144;2023-01-26T01:51:32;100953.63;;;2.13;69.76
36664;BME280;53333;51.976;20.144;2023-01-26T01:54:09;100952.75;;;2.11;69.76
36664;BME280;53333;51.976;20.144;2023-01-26T01:56:46;100949.22;;;2.10;69.76
36664;BME280;53333;51.976;20.144;2023-01-26T01:59:20;100946.59;;;2.06;69.77
36664;BME280;53333;51.976;20.144;2023-01-26T02:01:54;100946.59;;;2.03;69.78
36664;BME280;53333;51.976;20.144;2023-01-26T02:04:29;100943.09;;;1.99;69.93
36664;BME280;53333;51.976;20.144;2023-01-26T02:07:06;100932.53;;;1.96;70.04
36664;BME280;53333;51.976;20.144;2023-01-26T02:09:40;100932.53;;;1.93;70.05
36664;BME280;53333;51.976;20.144;2023-01-26T02:12:32;100933.44;;;1.89;69.97
36664;BME280;53333;51.976;20.144;2023-01-26T02:15:06;100936.94;;;1.85;70.23
36664;BME280;53333;51.976;20.144;2023-01-26T02:17:40;100928.16;;;1.81;70.35
36664;BME280;53333;51.976;20.144;2023-01-26T02:20:19;100915.88;;;1.80;70.30
36664;BME280;53333;51.976;20.144;2023-01-26T02:22:59;100921.13;;;1.78;70.68
36664;BME280;53333;51.976;20.144;2023-01-26T02:25:39;100913.22;;;1.77;70.52
36664;BME280;53333;51.976;20.144;2023-01-26T02:28:22;100909.72;;;1.76;70.45
36664;BME280;53333;51.976;20.144;2023-01-26T02:30:56;100906.22;;;1.77;70.51
36664;BME280;53333;51.976;20.144;2023-01-26T02:33:31;100905.31;;;1.78;70.36
36664;BME280;53333;51.976;20.144;2023-01-26T02:36:10;100892.16;;;1.75;70.53
36664;BME280;53333;51.976;20.144;2023-01-26T02:38:54;100891.28;;;1.76;70.54
36664;BME280;53333;51.976;20.144;2023-01-26T02:41:31;100896.56;;;1.78;70.50
36664;BME280;53333;51.976;20.144;2023-01-26T02:44:23;100897.44;;;1.74;70.57
36664;BME280;53333;51.976;20.144;2023-01-26T02:46:57;100895.69;;;1.71;70.36
36664;BME280;53333;51.976;20.144;2023-01-26T02:49:30;100896.56;;;1.70;70.65
36664;BME280;53333;51.976;20.144;2023-01-26T02:52:24;100885.16;;;1.67;71.00
36664;BME280;53333;51.976;20.144;2023-01-26T02:55:05;100881.66;;;1.65;70.77
36664;BME280;53333;51.976;20.144;2023-01-26T02:57:55;100883.38;;;1.64;70.62
36664;BME280;53333;51.976;20.144;2023-01-26T03:00:31;100878.13;;;1.64;70.88
36664;BME280;53333;51.976;20.144;2023-01-26T03:03:12;100873.75;;;1.63;70.85
36664;BME280;53333;51.976;20.144;2023-01-26T03:05:45;100865.84;;;1.65;70.77
36664;BME280;53333;51.976;20.144;2023-01-26T03:08:18;100867.59;;;1.66;70.89
36664;BME280;53333;51.976;20.144;2023-01-26T03:10:51;100862.31;;;1.64;70.79
36664;BME280;53333;51.976;20.144;2023-01-26T03:13:25;100864.94;;;1.59;70.70
36664;BME280;53333;51.976;20.144;2023-01-26T03:16:07;100859.69;;;1.58;71.15
36664;BME280;53333;51.976;20.144;2023-01-26T03:18:41;100850.91;;;1.59;70.80
36664;BME280;53333;51.976;20.144;2023-01-26T03:21:31;100852.69;;;1.60;70.92
36664;BME280;53333;51.976;20.144;2023-01-26T03:24:22;100856.19;;;1.62;70.87
36664;BME280;53333;51.976;20.144;2023-01-26T03:27:12;100855.31;;;1.58;70.83
36664;BME280;53333;51.976;20.144;2023-01-26T03:30:06;100845.66;;;1.57;70.81
36664;BME280;53333;51.976;20.144;2023-01-26T03:32:41;100845.66;;;1.57;70.97
36664;BME280;53333;51.976;20.144;2023-01-26T03:35:18;100848.28;;;1.57;70.88
36664;BME280;53333;51.976;20.144;2023-01-26T03:37:54;100848.28;;;1.56;70.92
36664;BME280;53333;51.976;20.144;2023-01-26T03:40:40;100840.38;;;1.56;71.09
36664;BME280;53333;51.976;20.144;2023-01-26T03:43:29;100835.97;;;1.56;70.99
36664;BME280;53333;51.976;20.144;2023-01-26T03:46:20;100821.94;;;1.56;70.95
36664;BME280;53333;51.976;20.144;2023-01-26T03:49:12;100823.72;;;1.54;71.11
36664;BME280;53333;51.976;20.144;2023-01-26T03:52:03;100816.69;;;1.51;71.15
36664;BME280;53333;51.976;20.144;2023-01-26T03:54:54;100809.69;;;1.49;71.27
36664;BME280;53333;51.976;20.144;2023-01-26T03:57:46;100805.28;;;1.48;71.26
36664;BME280;53333;51.976;20.144;2023-01-26T04:00:20;100809.69;;;1.49;71.19
36664;BME280;53333;51.976;20.144;2023-01-26T04:02:55;100810.53;;;1.52;71.37
36664;BME280;53333;51.976;20.144;2023-01-26T04:05:46;100806.16;;;1.56;71.15
36664;BME280;53333;51.976;20.144;2023-01-26T04:08:51;100804.38;;;1.58;71.08
36664;BME280;53333;51.976;20.144;2023-01-26T04:11:24;100804.38;;;1.58;71.17
36664;BME280;53333;51.976;20.144;2023-01-26T04:13:57;100803.50;;;1.57;71.21
36664;BME280;53333;51.976;20.144;2023-01-26T04:16:47;100813.19;;;1.57;71.10
36664;BME280;53333;51.976;20.144;2023-01-26T04:19:38;100803.50;;;1.59;71.28
36664;BME280;53333;51.976;20.144;2023-01-26T04:22:33;100797.38;;;1.60;71.26
36664;BME280;53333;51.976;20.144;2023-01-26T04:25:15;100797.38;;;1.58;71.34
36664;BME280;53333;51.976;20.144;2023-01-26T04:27:49;100800.00;;;1.60;71.41
36664;BME280;53333;51.976;20.144;2023-01-26T04:30:22;100805.28;;;1.65;71.19
36664;BME280;53333;51.976;20.144;2023-01-26T04:32:58;100800.00;;;1.66;71.41
36664;BME280;53333;51.976;20.144;2023-01-26T04:35:32;100790.34;;;1.67;71.28
36664;BME280;53333;51.976;20.144;2023-01-26T04:38:07;100798.22;;;1.79;70.95
36664;BME280;53333;51.976;20.144;2023-01-26T04:40:41;100797.38;;;1.69;71.05
36664;BME280;53333;51.976;20.144;2023-01-26T04:43:14;100801.72;;;1.67;71.01
36664;BME280;53333;51.976;20.144;2023-01-26T04:45:56;100804.38;;;1.69;71.27
36664;BME280;53333;51.976;20.144;2023-01-26T04:48:30;100802.63;;;1.65;71.44
36664;BME280;53333;51.976;20.144;2023-01-26T04:51:06;100801.72;;;1.64;71.36
36664;BME280;53333;51.976;20.144;2023-01-26T04:53:41;100803.50;;;1.65;71.29
36664;BME280;53333;51.976;20.144;2023-01-26T04:56:19;100800.00;;;1.63;71.46
36664;BME280;53333;51.976;20.144;2023-01-26T04:58:56;100808.78;;;1.63;71.56
36664;BME280;53333;51.976;20.144;2023-01-26T05:01:30;100798.22;;;1.65;71.33
36664;BME280;53333;51.976;20.144;2023-01-26T05:04:04;100799.09;;;1.67;71.59
36664;BME280;53333;51.976;20.144;2023-01-26T05:06:39;100789.47;;;1.66;71.54
36664;BME280;53333;51.976;20.144;2023-01-26T05:09:15;100792.97;;;1.67;71.34
36664;BME280;53333;51.976;20.144;2023-01-26T05:11:49;100792.09;;;1.65;71.44
36664;BME280;53333;51.976;20.144;2023-01-26T05:14:54;100791.19;;;1.62;71.32
36664;BME280;53333;51.976;20.144;2023-01-26T05:17:44;100789.47;;;1.63;71.36
36664;BME280;53333;51.976;20.144;2023-01-26T05:20:40;100791.19;;;1.62;71.34
36664;BME280;53333;51.976;20.144;2023-01-26T05:23:19;100787.69;;;1.62;71.60
36664;BME280;53333;51.976;20.144;2023-01-26T05:26:12;100792.09;;;1.58;71.57
36664;BME280;53333;51.976;20.144;2023-01-26T05:28:59;100792.09;;;1.58;71.59
36664;BME280;53333;51.976;20.144;2023-01-26T05:31:33;100784.22;;;1.60;71.74
36664;BME280;53333;51.976;20.144;2023-01-26T05:34:06;100785.06;;;1.60;71.63
36664;BME280;53333;51.976;20.144;2023-01-26T05:36:40;100775.41;;;1.62;71.42
36664;BME280;53333;51.976;20.144;2023-01-26T05:39:14;100779.81;;;1.63;71.63
36664;BME280;53333;51.976;20.144;2023-01-26T05:41:48;100779.78;;;1.67;71.67
36664;BME280;53333;51.976;20.144;2023-01-26T05:44:21;100779.78;;;1.70;71.52
36664;BME280;53333;51.976;20.144;2023-01-26T05:47:00;100776.25;;;1.72;71.44
36664;BME280;53333;51.976;20.144;2023-01-26T05:49:34;100778.00;;;1.73;71.28
36664;BME280;53333;51.976;20.144;2023-01-26T05:52:10;100767.47;;;1.70;71.56
36664;BME280;53333;51.976;20.144;2023-01-26T05:54:44;100762.22;;;1.72;71.53
36664;BME280;53333;51.976;20.144;2023-01-26T05:57:18;100771.88;;;1.73;71.40
36664;BME280;53333;51.976;20.144;2023-01-26T05:59:56;100772.75;;;1.72;71.30
36664;BME280;53333;51.976;20.144;2023-01-26T06:02:29;100775.38;;;1.69;71.32
36664;BME280;53333;51.976;20.144;2023-01-26T06:05:03;100776.28;;;1.69;71.28
36664;BME280;53333;51.976;20.144;2023-01-26T06:07:37;100774.53;;;1.65;71.52
36664;BME280;53333;51.976;20.144;2023-01-26T06:10:20;100774.53;;;1.63;71.44
36664;BME280;53333;51.976;20.144;2023-01-26T06:13:11;100774.53;;;1.62;71.41
36664;BME280;53333;51.976;20.144;2023-01-26T06:15:48;100777.16;;;1.65;71.48
36664;BME280;53333;51.976;20.144;2023-01-26T06:18:25;100778.03;;;1.66;71.51
36664;BME280;53333;51.976;20.144;2023-01-26T06:21:00;100771.03;;;1.68;71.54
36664;BME280;53333;51.976;20.144;2023-01-26T06:23:33;100771.88;;;1.70;71.38
36664;BME280;53333;51.976;20.144;2023-01-26T06:26:07;100770.97;;;1.71;71.28
36664;BME280;53333;51.976;20.144;2023-01-26T06:28:43;100769.25;;;1.71;71.50
36664;BME280;53333;51.976;20.144;2023-01-26T06:31:17;100777.16;;;1.74;71.27
36664;BME280;53333;51.976;20.144;2023-01-26T06:33:52;100765.72;;;1.75;71.40
36664;BME280;53333;51.976;20.144;2023-01-26T06:36:25;100766.59;;;1.77;71.37
36664;BME280;53333;51.976;20.144;2023-01-26T06:38:59;100766.59;;;1.77;71.29
36664;BME280;53333;51.976;20.144;2023-01-26T06:41:32;100759.56;;;1.79;71.43
36664;BME280;53333;51.976;20.144;2023-01-26T06:44:08;100761.34;;;1.79;71.16
36664;BME280;53333;51.976;20.144;2023-01-26T06:46:41;100758.69;;;1.80;71.34
36664;BME280;53333;51.976;20.144;2023-01-26T06:49:14;100760.41;;;1.83;71.20
36664;BME280;53333;51.976;20.144;2023-01-26T06:51:57;100759.53;;;1.87;71.24
36664;BME280;53333;51.976;20.144;2023-01-26T06:54:47;100770.94;;;1.88;71.13
36664;BME280;53333;51.976;20.144;2023-01-26T06:57:48;100774.50;;;1.85;71.08
36664;BME280;53333;51.976;20.144;2023-01-26T07:00:55;100770.09;;;1.83;71.24
36664;BME280;53333;51.976;20.144;2023-01-26T07:03:32;100762.19;;;1.83;71.24
36664;BME280;53333;51.976;20.144;2023-01-26T07:06:05;100765.69;;;1.81;71.39
36664;BME280;53333;51.976;20.144;2023-01-26T07:08:39;100765.69;;;1.83;71.38
36664;BME280;53333;51.976;20.144;2023-01-26T07:11:12;100768.31;;;1.85;71.20
36664;BME280;53333;51.976;20.144;2023-01-26T07:13:46;100763.94;;;1.85;71.33
36664;BME280;53333;51.976;20.144;2023-01-26T07:16:21;100764.81;;;1.86;71.11
36664;BME280;53333;51.976;20.144;2023-01-26T07:18:54;100767.44;;;1.89;71.21
36664;BME280;53333;51.976;20.144;2023-01-26T07:21:27;100763.03;;;1.88;71.04
36664;BME280;53333;51.976;20.144;2023-01-26T07:24:00;100763.03;;;1.91;71.19
36664;BME280;53333;51.976;20.144;2023-01-26T07:26:36;100762.16;;;1.90;71.07
36664;BME280;53333;51.976;20.144;2023-01-26T07:29:09;100756.88;;;1.93;71.06
36664;BME280;53333;51.976;20.144;2023-01-26T07:31:43;100754.25;;;1.95;71.14
36664;BME280;53333;51.976;20.144;2023-01-26T07:34:17;100750.72;;;1.94;70.92
36664;BME280;53333;51.976;20.144;2023-01-26T07:36:50;100743.72;;;1.92;71.02
36664;BME280;53333;51.976;20.144;2023-01-26T07:39:23;100745.44;;;1.93;71.05
36664;BME280;53333;51.976;20.144;2023-01-26T07:41:57;100753.34;;;1.94;70.96
36664;BME280;53333;51.976;20.144;2023-01-26T07:44:51;100751.63;;;1.95;70.77
36664;BME280;53333;51.976;20.144;2023-01-26T07:47:26;100748.97;;;1.95;70.81
36664;BME280;53333;51.976;20.144;2023-01-26T07:49:59;100749.84;;;1.95;70.59
36664;BME280;53333;51.976;20.144;2023-01-26T07:52:32;100744.56;;;1.95;70.74
36664;BME280;53333;51.976;20.144;2023-01-26T07:55:06;100752.47;;;1.95;70.63
36664;BME280;53333;51.976;20.144;2023-01-26T07:57:39;100746.31;;;1.99;70.62
36664;BME280;53333;51.976;20.144;2023-01-26T08:00:13;100744.56;;;2.00;70.47
36664;BME280;53333;51.976;20.144;2023-01-26T08:02:49;100750.69;;;2.02;70.56
36664;BME280;53333;51.976;20.144;2023-01-26T08:05:22;100744.56;;;2.00;70.42
36664;BME280;53333;51.976;20.144;2023-01-26T08:07:56;100741.06;;;1.99;70.60
36664;BME280;53333;51.976;20.144;2023-01-26T08:10:34;100749.81;;;2.00;70.58
36664;BME280;53333;51.976;20.144;2023-01-26T08:13:07;100749.81;;;2.02;70.48
36664;BME280;53333;51.976;20.144;2023-01-26T08:15:40;100750.69;;;2.04;70.45
36664;BME280;53333;51.976;20.144;2023-01-26T08:18:15;100753.31;;;2.07;70.31
36664;BME280;53333;51.976;20.144;2023-01-26T08:20:49;100753.31;;;2.08;70.27
36664;BME280;53333;51.976;20.144;2023-01-26T08:23:23;100744.50;;;2.11;70.47
36664;BME280;53333;51.976;20.144;2023-01-26T08:25:59;100752.41;;;2.14;70.29
36664;BME280;53333;51.976;20.144;2023-01-26T08:28:33;100749.78;;;2.15;70.15
36664;BME280;53333;51.976;20.144;2023-01-26T08:31:08;100751.50;;;2.16;70.01
36664;BME280;53333;51.976;20.144;2023-01-26T08:33:44;100740.06;;;2.19;70.02
36664;BME280;53333;51.976;20.144;2023-01-26T08:36:18;100738.28;;;2.24;69.99
36664;BME280;53333;51.976;20.144;2023-01-26T08:38:53;100746.16;;;2.30;69.86
36664;BME280;53333;51.976;20.144;2023-01-26T08:41:26;100748.78;;;2.35;69.74
36664;BME280;53333;51.976;20.144;2023-01-26T08:43:59;100754.03;;;2.40;69.66
36664;BME280;53333;51.976;20.144;2023-01-26T08:46:32;100754.88;;;2.45;69.41
36664;BME280;53333;51.976;20.144;2023-01-26T08:49:07;100760.13;;;2.49;69.32
36664;BME280;53333;51.976;20.144;2023-01-26T08:51:40;100759.22;;;2.50;69.17
36664;BME280;53333;51.976;20.144;2023-01-26T08:54:13;100762.72;;;2.56;69.19
36664;BME280;53333;51.976;20.144;2023-01-26T08:56:46;100763.56;;;2.61;68.99
36664;BME280;53333;51.976;20.144;2023-01-26T08:59:19;100752.16;;;2.62;68.90
36664;BME280;53333;51.976;20.144;2023-01-26T09:01:52;100753.88;;;2.63;68.79
36664;BME280;53333;51.976;20.144;2023-01-26T09:04:27;100760.00;;;2.65;68.69
36664;BME280;53333;51.976;20.144;2023-01-26T09:07:00;100761.75;;;2.66;68.43
36664;BME280;53333;51.976;20.144;2023-01-26T09:09:33;100762.63;;;2.65;68.38
36664;BME280;53333;51.976;20.144;2023-01-26T09:12:07;100763.56;;;2.64;68.33
36664;BME280;53333;51.976;20.144;2023-01-26T09:14:40;100770.56;;;2.65;68.34
36664;BME280;53333;51.976;20.144;2023-01-26T09:17:13;100775.88;;;2.63;68.33
36664;BME280;53333;51.976;20.144;2023-01-26T09:19:47;100778.47;;;2.65;68.14
36664;BME280;53333;51.976;20.144;2023-01-26T09:22:20;100777.59;;;2.67;68.00
36664;BME280;53333;51.976;20.144;2023-01-26T09:24:53;100776.69;;;2.70;68.15
36664;BME280;53333;51.976;20.144;2023-01-26T09:27:26;100779.34;;;2.67;68.02
36664;BME280;53333;51.976;20.144;2023-01-26T09:29:59;100771.47;;;2.64;67.75
36664;BME280;53333;51.976;20.144;2023-01-26T09:32:33;100766.19;;;2.62;67.80
36664;BME280;53333;51.976;20.144;2023-01-26T09:35:08;100759.16;;;2.60;67.58
36664;BME280;53333;51.976;20.144;2023-01-26T09:37:45;100761.81;;;2.60;67.60
36664;BME280;53333;51.976;20.144;2023-01-26T09:40:21;100755.66;;;2.59;67.48
36664;BME280;53333;51.976;20.144;2023-01-26T09:43:06;100740.69;;;2.61;67.57
36664;BME280;53333;51.976;20.144;2023-01-26T09:45:55;100749.44;;;2.65;67.40
36664;BME280;53333;51.976;20.144;2023-01-26T09:48:36;100741.53;;;2.65;67.46
36664;BME280;53333;51.976;20.144;2023-01-26T09:51:18;100743.28;;;2.69;67.34
36664;BME280;53333;51.976;20.144;2023-01-26T09:53:56;100743.25;;;2.72;67.21
36664;BME280;53333;51.976;20.144;2023-01-26T09:56:31;100729.19;;;2.76;67.07
36664;BME280;53333;51.976;20.144;2023-01-26T09:59:14;100726.47;;;2.82;66.93
36664;BME280;53333;51.976;20.144;2023-01-26T10:01:52;100734.38;;;2.84;66.96
36664;BME280;53333;51.976;20.144;2023-01-26T10:04:31;100728.19;;;2.88;66.81
36664;BME280;53333;51.976;20.144;2023-01-26T10:07:10;100723.75;;;2.91;66.52
36664;BME280;53333;51.976;20.144;2023-01-26T10:09:50;100717.59;;;2.94;66.67
36664;BME280;53333;51.976;20.144;2023-01-26T10:12:27;100723.72;;;2.98;66.57
36664;BME280;53333;51.976;20.144;2023-01-26T10:15:04;100717.53;;;3.00;66.59
36664;BME280;53333;51.976;20.144;2023-01-26T10:17:40;100705.19;;;3.01;66.27
36664;BME280;53333;51.976;20.144;2023-01-26T10:20:26;100716.59;;;3.06;66.08
36664;BME280;53333;51.976;20.144;2023-01-26T10:23:04;100716.56;;;3.09;66.01
36664;BME280;53333;51.976;20.144;2023-01-26T10:25:39;100711.28;;;3.07;66.04
36664;BME280;53333;51.976;20.144;2023-01-26T10:28:15;100708.63;;;3.11;65.83
36664;BME280;53333;51.976;20.144;2023-01-26T10:30:49;100713.03;;;3.12;65.76
36664;BME280;53333;51.976;20.144;2023-01-26T10:33:25;100705.13;;;3.10;65.55
36664;BME280;53333;51.976;20.144;2023-01-26T10:36:00;100702.53;;;3.04;65.64
36664;BME280;53333;51.976;20.144;2023-01-26T10:38:42;100699.06;;;3.00;65.56
36664;BME280;53333;51.976;20.144;2023-01-26T10:41:26;100697.31;;;2.96;65.62
36664;BME280;53333;51.976;20.144;2023-01-26T10:44:02;100692.97;;;2.92;65.53
36664;BME280;53333;51.976;20.144;2023-01-26T10:46:37;100696.50;;;2.89;65.47
36664;BME280;53333;51.976;20.144;2023-01-26T10:49:14;100685.06;;;2.90;65.47
36664;BME280;53333;51.976;20.144;2023-01-26T10:52:06;100679.72;;;2.97;65.47
36664;BME280;53333;51.976;20.144;2023-01-26T10:54:41;100681.50;;;2.95;65.43
36664;BME280;53333;51.976;20.144;2023-01-26T10:57:17;100677.06;;;2.97;65.34
36664;BME280;53333;51.976;20.144;2023-01-26T10:59:54;100670.06;;;2.97;65.25
36664;BME280;53333;51.976;20.144;2023-01-26T11:02:29;100661.25;;;2.95;65.18
36664;BME280;53333;51.976;20.144;2023-01-26T11:05:14;100657.72;;;2.98;65.24
36664;BME280;53333;51.976;20.144;2023-01-26T11:07:48;100648.88;;;3.05;65.27
36664;BME280;53333;51.976;20.144;2023-01-26T11:10:28;100645.50;;;2.90;65.15
36664;BME280;53333;51.976;20.144;2023-01-26T11:13:07;100649.91;;;2.85;65.18
36664;BME280;53333;51.976;20.144;2023-01-26T11:15:45;100643.78;;;2.82;65.09
36664;BME280;53333;51.976;20.144;2023-01-26T11:18:26;100645.56;;;2.81;65.20
36664;BME280;53333;51.976;20.144;2023-01-26T11:21:05;100646.44;;;2.82;65.11
36664;BME280;53333;51.976;20.144;2023-01-26T11:23:48;100636.75;;;2.82;65.03
36664;BME280;53333;51.976;20.144;2023-01-26T11:32:41;100634.97;;;2.86;64.94
36664;BME280;53333;51.976;20.144;2023-01-26T11:35:29;100634.06;;;2.87;64.86
36664;BME280;53333;51.976;20.144;2023-01-26T11:38:15;100622.66;;;2.86;64.76
36664;BME280;53333;51.976;20.144;2023-01-26T11:41:00;100623.50;;;2.87;64.75
36664;BME280;53333;51.976;20.144;2023-01-26T11:46:57;100624.34;;;2.94;64.65
36664;BME280;53333;51.976;20.144;2023-01-26T11:49:52;100617.25;;;3.00;64.56
36664;BME280;53333;51.976;20.144;2023-01-26T11:52:34;100611.97;;;3.00;64.51
36664;BME280;53333;51.976;20.144;2023-01-26T11:55:19;100613.66;;;3.03;64.45
36664;BME280;53333;51.976;20.144;2023-01-26T11:58:16;100615.34;;;3.12;64.35
36664;BME280;53333;51.976;20.144;2023-01-26T12:00:56;100605.69;;;3.11;64.21
36664;BME280;53333;51.976;20.144;2023-01-26T12:03:35;100608.28;;;3.14;63.93
36664;BME280;53333;51.976;20.144;2023-01-26T12:06:16;100610.03;;;3.15;63.79
36664;BME280;53333;51.976;20.144;2023-01-26T12:08:52;100606.47;;;3.17;63.73
36664;BME280;53333;51.976;20.144;2023-01-26T12:11:32;100596.78;;;3.21;63.60
36664;BME280;53333;51.976;20.144;2023-01-26T12:14:15;100594.97;;;3.24;63.65
36664;BME280;53333;51.976;20.144;2023-01-26T12:17:07;100596.66;;;3.28;63.64
36664;BME280;53333;51.976;20.144;2023-01-26T12:19:54;100588.69;;;3.33;63.42
36664;BME280;53333;51.976;20.144;2023-01-26T12:22:36;100600.13;;;3.35;63.47
36664;BME280;53333;51.976;20.144;2023-01-26T12:25:21;100600.09;;;3.38;63.40
36664;BME280;53333;51.976;20.144;2023-01-26T12:28:00;100597.44;;;3.38;63.19
36664;BME280;53333;51.976;20.144;2023-01-26T12:30:41;100595.72;;;3.36;63.09
36664;BME280;53333;51.976;20.144;2023-01-26T12:33:17;100598.41;;;3.31;63.12
36664;BME280;53333;51.976;20.144;2023-01-26T12:36:02;100601.06;;;3.30;62.88
36664;BME280;53333;51.976;20.144;2023-01-26T12:38:48;100603.72;;;3.26;62.98
36664;BME280;53333;51.976;20.144;2023-01-26T12:41:33;100606.38;;;3.25;63.03
36664;BME280;53333;51.976;20.144;2023-01-26T12:44:20;100603.72;;;3.26;62.95
36664;BME280;53333;51.976;20.144;2023-01-26T12:47:04;100594.94;;;3.26;62.78
36664;BME280;53333;51.976;20.144;2023-01-26T12:49:44;100597.59;;;3.24;62.81
36664;BME280;53333;51.976;20.144;2023-01-26T12:52:24;100601.13;;;3.23;62.81
36664;BME280;53333;51.976;20.144;2023-01-26T12:55:01;100597.63;;;3.23;62.70
36664;BME280;53333;51.976;20.144;2023-01-26T12:57:40;100591.41;;;3.25;62.61
36664;BME280;53333;51.976;20.144;2023-01-26T13:00:19;100588.78;;;3.25;62.61
36664;BME280;53333;51.976;20.144;2023-01-26T13:02:56;100586.19;;;3.24;62.56
36664;BME280;53333;51.976;20.144;2023-01-26T13:05:34;100587.09;;;3.20;62.48
36664;BME280;53333;51.976;20.144;2023-01-26T13:08:38;100584.44;;;3.21;62.64
36664;BME280;53333;51.976;20.144;2023-01-26T13:11:41;100587.13;;;3.17;62.68
36664;BME280;53333;51.976;20.144;2023-01-26T13:14:27;100595.13;;;3.09;62.70
36664;BME280;53333;51.976;20.144;2023-01-26T13:17:39;100582.88;;;3.05;62.91
36664;BME280;53333;51.976;20.144;2023-01-26T13:20:42;100584.66;;;3.01;63.05
36664;BME280;53333;51.976;20.144;2023-01-26T13:23:49;100577.69;;;2.96;63.01
36664;BME280;53333;51.976;20.144;2023-01-26T13:26:40;100586.50;;;2.95;63.12
36664;BME280;53333;51.976;20.144;2023-01-26T13:29:33;100579.44;;;2.95;63.04
36664;BME280;53333;51.976;20.144;2023-01-26T13:35:26;100571.63;;;2.87;63.05
36664;BME280;53333;51.976;20.144;2023-01-26T13:38:05;100569.84;;;2.88;63.05
36664;BME280;53333;51.976;20.144;2023-01-26T13:40:43;100571.63;;;2.86;62.95
36664;BME280;53333;51.976;20.144;2023-01-26T13:43:21;100572.50;;;2.86;63.14
36664;BME280;53333;51.976;20.144;2023-01-26T13:46:21;100572.44;;;2.93;63.21
36664;BME280;53333;51.976;20.144;2023-01-26T13:48:56;100572.50;;;2.88;63.09
36664;BME280;53333;51.976;20.144;2023-01-26T13:51:31;100574.25;;;2.87;63.10
36664;BME280;53333;51.976;20.144;2023-01-26T13:54:10;100577.75;;;2.89;63.21
36664;BME280;53333;51.976;20.144;2023-01-26T13:56:59;100571.59;;;2.90;63.05
36664;BME280;53333;51.976;20.144;2023-01-26T13:59:33;100570.72;;;2.87;62.95
36664;BME280;53333;51.976;20.144;2023-01-26T14:02:10;100565.47;;;2.85;62.89